LTAG/ADF METAR and TAF weather

Enter ICAO airport designator
Station Type Date Time Source
LTAG METAR 2020/09/26 23:50 UTC NOAA

LTAG 262350Z 04005KT 9999 SCT030 21/21 Q1012 NOSIG


Station Type Date Time Source
LTAG Decoded METAR 2020/09/26 23:50 UTC NOAA

Adana / Incirlik, Turkey (LTAG) 37-00N 035-25E 66M
Sep 26, 2020 - 07:50 PM EDT / 2020.09.26 2350 UTC
Wind: from the NE (040 degrees) at 6 MPH (5 KT):0
Visibility: greater than 7 mile(s):0
Sky conditions: partly cloudy
Temperature: 69 F (21 C)
Dew Point: 69 F (21 C)
Relative Humidity: 100%
Pressure (altimeter): 29.88 in. Hg (1012 hPa)
ob: LTAG 262350Z 04005KT 9999 SCT030 21/21 Q1012 NOSIG
cycle: 0

Station Type Date Time Source
LTAG TAF 2020/09/26 18:03 UTC NOAA

TAF TAF LTAG 261640Z 2618/2718 VRB02KT 9999 SCT030
TEMPO 2702/2706 BKN025
BECMG 2710/2712 19012KT
BECMG 2715/2717 VRB02KT

Example: see airport list